createdAt,value
2023-01-30T00:01:19.090Z,-3.85
2023-01-30T00:03:47.639Z,-3.84
2023-01-30T00:06:16.470Z,-3.85
2023-01-30T00:08:46.190Z,-3.91
2023-01-30T00:11:16.302Z,-3.95
2023-01-30T00:13:45.410Z,-4.01
2023-01-30T00:16:22.257Z,-4.14
2023-01-30T00:18:51.942Z,-4.09
2023-01-30T00:21:22.309Z,-4.01
2023-01-30T00:23:54.269Z,-3.98
2023-01-30T00:26:24.594Z,-3.97
2023-01-30T00:28:54.959Z,-3.94
2023-01-30T00:31:29.715Z,-4.04
2023-01-30T00:34:27.976Z,-4.14
2023-01-30T00:37:07.849Z,-4.22
2023-01-30T00:39:37.843Z,-4.28
2023-01-30T00:42:25.866Z,-4.22
2023-01-30T00:45:11.500Z,-4.19
2023-01-30T00:47:42.195Z,-4.19
2023-01-30T00:50:13.056Z,-4.19
2023-01-30T00:52:46.493Z,-4.15
2023-01-30T00:55:17.058Z,-4.01
2023-01-30T00:57:47.592Z,-4.14
2023-01-30T01:00:23.402Z,-4.14
2023-01-30T01:02:57.978Z,-4.18
2023-01-30T01:05:32.261Z,-4.30
2023-01-30T01:08:03.406Z,-4.39
2023-01-30T01:10:31.795Z,-4.48
2023-01-30T01:13:03.587Z,-4.50
2023-01-30T01:15:31.896Z,-4.46
2023-01-30T01:18:03.962Z,-4.50
2023-01-30T01:20:32.298Z,-4.48
2023-01-30T01:23:04.307Z,-4.46
2023-01-30T01:25:32.599Z,-4.34
2023-01-30T01:28:32.393Z,-4.26
2023-01-30T01:31:08.299Z,-4.28
2023-01-30T01:33:41.680Z,-4.22
2023-01-30T01:36:29.430Z,-4.19
2023-01-30T01:39:04.771Z,-4.19
2023-01-30T01:41:32.085Z,-4.14
2023-01-30T01:44:03.235Z,-4.12
2023-01-30T01:46:34.195Z,-3.93
2023-01-30T01:49:07.429Z,-3.84
2023-01-30T01:51:41.645Z,-3.81
2023-01-30T01:54:15.096Z,-3.80
2023-01-30T01:56:49.194Z,-3.81
2023-01-30T01:59:24.781Z,-3.85
2023-01-30T02:02:01.116Z,-3.97
2023-01-30T02:04:54.369Z,-4.02
2023-01-30T02:07:26.803Z,-4.11
2023-01-30T02:09:55.216Z,-4.14
2023-01-30T02:12:24.601Z,-4.14
2023-01-30T02:14:57.544Z,-4.11
2023-01-30T02:17:26.198Z,-4.12
2023-01-30T02:20:06.424Z,-4.32
2023-01-30T02:23:25.622Z,-4.57
2023-01-30T02:26:32.667Z,-4.76
2023-01-30T02:29:33.997Z,-4.80
2023-01-30T02:32:11.873Z,-4.63
2023-01-30T02:34:51.920Z,-4.79
2023-01-30T02:37:36.392Z,-4.81
2023-01-30T02:40:17.925Z,-4.71
2023-01-30T02:43:01.445Z,-4.80
2023-01-30T02:45:37.183Z,-4.91
2023-01-30T02:48:20.059Z,-5.02
2023-01-30T02:50:55.155Z,-5.11
2023-01-30T02:53:23.413Z,-5.19
2023-01-30T02:55:53.675Z,-5.25
2023-01-30T02:58:24.945Z,-5.32
2023-01-30T03:01:08.680Z,-5.26
2023-01-30T03:03:55.188Z,-5.25
2023-01-30T03:06:43.225Z,-5.26
2023-01-30T03:09:19.749Z,-5.32
2023-01-30T03:11:57.449Z,-5.35
2023-01-30T03:14:30.478Z,-5.35
2023-01-30T03:17:02.037Z,-5.42
2023-01-30T03:19:31.947Z,-5.33
2023-01-30T03:22:01.937Z,-5.33
2023-01-30T03:24:30.429Z,-5.32
2023-01-30T03:27:09.355Z,-5.28
2023-01-30T03:29:38.628Z,-5.28
2023-01-30T03:32:07.812Z,-5.28
2023-01-30T03:34:41.968Z,-5.32
2023-01-30T03:37:12.354Z,-5.35
2023-01-30T03:39:40.630Z,-5.36
2023-01-30T03:42:15.588Z,-5.39
2023-01-30T03:44:44.267Z,-5.40
2023-01-30T03:47:12.627Z,-5.39
2023-01-30T03:49:42.567Z,-5.40
2023-01-30T03:52:11.903Z,-5.44
2023-01-30T03:54:41.251Z,-5.40
2023-01-30T03:57:09.949Z,-5.52
2023-01-30T03:59:39.266Z,-5.44
2023-01-30T04:02:13.921Z,-5.47
2023-01-30T04:04:45.306Z,-5.49
2023-01-30T04:07:13.645Z,-5.46
2023-01-30T04:09:44.500Z,-5.59
2023-01-30T04:12:15.291Z,-5.60
2023-01-30T04:14:53.475Z,-5.60
2023-01-30T04:17:45.186Z,-5.60
2023-01-30T04:20:38.995Z,-5.66
2023-01-30T04:23:08.834Z,-5.64
2023-01-30T04:25:38.081Z,-5.64
2023-01-30T04:28:08.944Z,-5.70
2023-01-30T04:30:39.251Z,-5.81
2023-01-30T04:33:26.148Z,-5.76
2023-01-30T04:35:57.792Z,-5.73
2023-01-30T04:38:27.817Z,-5.80
2023-01-30T04:40:58.752Z,-5.86
2023-01-30T04:43:30.623Z,-5.83
2023-01-30T04:46:01.714Z,-5.86
2023-01-30T04:48:32.109Z,-5.91
2023-01-30T04:51:03.850Z,-5.81
2023-01-30T04:53:32.204Z,-5.76
2023-01-30T04:56:02.561Z,-5.74
2023-01-30T04:58:31.979Z,-5.71
2023-01-30T05:01:15.832Z,-5.70
2023-01-30T05:03:47.054Z,-5.62
2023-01-30T05:06:36.660Z,-5.67
2023-01-30T05:09:10.631Z,-5.60
2023-01-30T05:11:41.914Z,-5.62
2023-01-30T05:14:10.312Z,-5.62
2023-01-30T05:16:39.765Z,-5.63
2023-01-30T05:19:14.547Z,-5.62
2023-01-30T05:21:57.573Z,-5.57
2023-01-30T05:24:25.893Z,-5.60
2023-01-30T05:26:54.163Z,-5.55
2023-01-30T05:29:22.601Z,-5.59
2023-01-30T05:31:51.985Z,-5.59
2023-01-30T05:34:21.354Z,-5.62
2023-01-30T05:36:49.780Z,-5.66
2023-01-30T05:39:20.510Z,-5.74
2023-01-30T05:41:48.952Z,-5.74
2023-01-30T05:44:18.462Z,-5.86
2023-01-30T05:46:46.804Z,-5.97
2023-01-30T05:49:15.265Z,-6.04
2023-01-30T05:51:44.623Z,-6.16
2023-01-30T05:54:12.940Z,-6.19
2023-01-30T05:56:45.672Z,-6.25
2023-01-30T05:59:15.460Z,-6.25
2023-01-30T06:01:44.807Z,-6.25
2023-01-30T06:04:14.407Z,-6.12
2023-01-30T06:07:11.279Z,-6.06
2023-01-30T06:09:46.370Z,-6.04
2023-01-30T06:12:17.424Z,-6.04
2023-01-30T06:15:09.008Z,-6.02
2023-01-30T06:17:37.422Z,-6.16
2023-01-30T06:20:13.943Z,-6.16
2023-01-30T06:22:43.244Z,-6.22
2023-01-30T06:25:13.771Z,-6.25
2023-01-30T06:27:44.624Z,-6.14
2023-01-30T06:30:14.986Z,-6.15
2023-01-30T06:32:45.403Z,-6.11
2023-01-30T06:35:15.131Z,-5.99
2023-01-30T06:37:47.862Z,-5.91
2023-01-30T06:40:20.312Z,-5.88
2023-01-30T06:42:51.307Z,-5.78
2023-01-30T06:45:23.313Z,-5.80
2023-01-30T06:47:53.925Z,-5.69
2023-01-30T06:50:27.661Z,-5.59
2023-01-30T06:53:04.306Z,-5.55
2023-01-30T06:55:36.923Z,-5.44
2023-01-30T06:58:20.107Z,-5.33
2023-01-30T07:00:49.640Z,-5.20
2023-01-30T07:03:30.162Z,-5.12
2023-01-30T07:06:00.466Z,-4.97
2023-01-30T07:08:37.807Z,-4.84
2023-01-30T07:11:07.892Z,-4.71
2023-01-30T07:13:37.914Z,-4.71
2023-01-30T07:17:07.592Z,-4.70
2023-01-30T07:19:37.028Z,-4.66
2023-01-30T07:22:09.260Z,-4.67
2023-01-30T07:24:39.896Z,-4.73
2023-01-30T07:27:08.943Z,-4.74
2023-01-30T07:29:41.466Z,-4.64
2023-01-30T07:32:16.666Z,-4.59
2023-01-30T07:34:46.053Z,-4.56
2023-01-30T07:37:19.132Z,-4.50
2023-01-30T07:39:48.665Z,-4.42
2023-01-30T07:42:21.032Z,-4.41
2023-01-30T07:44:51.975Z,-4.42
2023-01-30T07:47:51.091Z,-4.43
2023-01-30T07:50:20.266Z,-4.41
2023-01-30T07:53:31.671Z,-4.39
2023-01-30T07:56:33.056Z,-4.28
2023-01-30T07:59:08.537Z,-4.23
2023-01-30T08:02:14.114Z,-4.18
2023-01-30T08:05:16.441Z,-4.09
2023-01-30T08:07:47.626Z,-3.97
2023-01-30T08:10:18.007Z,-3.90
2023-01-30T08:13:51.602Z,-3.76
2023-01-30T08:16:24.275Z,-3.63
2023-01-30T08:20:20.124Z,-3.64
2023-01-30T08:22:56.432Z,-3.52
2023-01-30T08:29:41.641Z,-3.29
2023-01-30T08:32:15.979Z,-3.18
2023-01-30T08:34:46.403Z,-3.09
2023-01-30T08:37:15.792Z,-3.01
2023-01-30T08:40:11.063Z,-2.90
2023-01-30T08:42:45.252Z,-2.73
2023-01-30T08:45:19.917Z,-2.57
2023-01-30T08:48:20.913Z,-2.46
2023-01-30T08:50:53.236Z,-2.32
2023-01-30T08:53:23.257Z,-2.21
2023-01-30T08:55:53.235Z,-2.15
2023-01-30T08:58:27.604Z,-2.08
2023-01-30T09:00:55.887Z,-1.94
2023-01-30T09:04:25.246Z,-1.95
2023-01-30T09:06:59.206Z,-1.99
2023-01-30T09:09:35.907Z,-1.83
2023-01-30T09:12:05.764Z,-1.74
2023-01-30T09:14:35.516Z,-1.67
2023-01-30T09:17:07.208Z,-1.64
2023-01-30T09:19:37.639Z,-1.62
2023-01-30T09:22:11.253Z,-1.53
2023-01-30T09:25:00.321Z,-1.55
2023-01-30T09:27:29.747Z,-1.55
2023-01-30T09:30:16.434Z,-1.39
2023-01-30T09:33:43.260Z,-1.29
2023-01-30T09:36:13.568Z,-1.26
2023-01-30T09:38:42.965Z,-1.25
2023-01-30T09:41:53.319Z,-1.22
2023-01-30T09:45:01.668Z,-1.28
2023-01-30T09:47:39.792Z,-1.26
2023-01-30T09:50:25.149Z,-1.19
2023-01-30T09:52:59.184Z,-1.11
2023-01-30T09:55:38.565Z,-1.08
2023-01-30T09:58:43.558Z,-0.91
2023-01-30T10:01:21.525Z,-0.71
2023-01-30T10:04:03.388Z,-0.59
2023-01-30T10:06:58.819Z,-0.44
2023-01-30T10:09:37.021Z,-0.40
2023-01-30T10:12:20.837Z,-0.39
2023-01-30T10:15:06.112Z,-0.40
2023-01-30T10:17:53.806Z,-0.36
2023-01-30T10:20:45.092Z,-0.39
2023-01-30T10:23:51.447Z,-0.21
2023-01-30T10:26:30.675Z,-0.06
2023-01-30T10:29:32.899Z,0.22
2023-01-30T10:32:29.163Z,0.32
2023-01-30T10:35:07.953Z,0.33
2023-01-30T10:37:57.331Z,0.29
2023-01-30T10:40:35.902Z,0.40
2023-01-30T10:43:11.177Z,0.36
2023-01-30T10:45:50.770Z,0.29
2023-01-30T10:48:55.737Z,0.29
2023-01-30T10:51:35.350Z,0.23
2023-01-30T10:54:17.976Z,0.33
2023-01-30T10:56:59.141Z,0.36
2023-01-30T11:00:05.210Z,0.46
2023-01-30T11:03:01.647Z,0.57
2023-01-30T11:06:44.696Z,0.57
2023-01-30T11:10:24.682Z,0.54
2023-01-30T11:12:58.032Z,0.42
2023-01-30T11:15:40.776Z,0.54
2023-01-30T11:18:42.192Z,0.61
2023-01-30T11:21:27.086Z,0.67
2023-01-30T11:24:07.129Z,0.64
2023-01-30T11:26:53.845Z,0.73
2023-01-30T11:30:30.862Z,0.80
2023-01-30T11:34:03.337Z,0.80
2023-01-30T11:37:15.443Z,0.85
2023-01-30T11:39:54.317Z,0.73
2023-01-30T11:42:54.189Z,0.60
2023-01-30T11:50:14.746Z,0.63
2023-01-30T11:52:51.080Z,0.65
2023-01-30T11:56:00.209Z,0.61
2023-01-30T11:58:41.118Z,0.61
2023-01-30T12:01:18.114Z,0.56
2023-01-30T12:03:51.612Z,0.54
2023-01-30T12:07:05.464Z,0.63
2023-01-30T12:09:40.723Z,0.73
2023-01-30T12:12:29.926Z,0.88
2023-01-30T12:15:21.790Z,0.88
2023-01-30T12:18:00.953Z,0.87
2023-01-30T12:20:42.102Z,1.05
2023-01-30T12:23:39.441Z,1.12
2023-01-30T12:26:42.132Z,1.08
2023-01-30T12:29:52.619Z,1.08
2023-01-30T12:32:28.872Z,0.96
2023-01-30T12:35:00.314Z,0.98
2023-01-30T12:37:46.781Z,0.93
2023-01-30T12:40:30.266Z,0.88
2023-01-30T12:43:15.827Z,1.02
2023-01-30T12:45:51.877Z,1.23
2023-01-30T12:48:48.810Z,1.29
2023-01-30T12:51:49.456Z,1.32
2023-01-30T12:54:52.170Z,1.29
2023-01-30T12:57:46.275Z,1.23
2023-01-30T13:00:35.759Z,1.18
2023-01-30T13:03:24.460Z,1.20
2023-01-30T13:06:29.324Z,1.22
2023-01-30T13:09:11.244Z,1.26
2023-01-30T13:11:55.115Z,1.35
2023-01-30T13:15:02.473Z,1.20
2023-01-30T13:18:03.637Z,1.25
2023-01-30T13:20:51.358Z,0.99
2023-01-30T13:23:47.464Z,1.15
2023-01-30T13:26:20.605Z,1.22
2023-01-30T13:28:52.543Z,1.26
2023-01-30T13:31:25.272Z,1.20
2023-01-30T13:34:28.020Z,1.25
2023-01-30T13:37:27.434Z,1.44
2023-01-30T13:40:17.979Z,1.44
2023-01-30T13:42:53.625Z,1.60
2023-01-30T13:45:38.107Z,1.64
2023-01-30T13:48:27.147Z,1.74
2023-01-30T13:51:24.273Z,1.67
2023-01-30T13:53:59.856Z,1.44
2023-01-30T13:57:03.815Z,1.49
2023-01-30T14:00:18.034Z,1.68
2023-01-30T14:03:25.905Z,1.58
2023-01-30T14:06:35.843Z,1.58
2023-01-30T14:09:27.300Z,1.67
2023-01-30T14:12:04.114Z,1.70
2023-01-30T14:14:33.991Z,1.57
2023-01-30T14:17:16.300Z,1.70
2023-01-30T14:20:16.446Z,1.79
2023-01-30T14:23:59.397Z,1.63
2023-01-30T14:27:01.804Z,1.74
2023-01-30T14:30:36.534Z,1.78
2023-01-30T14:33:49.072Z,1.66
2023-01-30T14:37:32.829Z,1.63
2023-01-30T14:40:34.248Z,1.61
2023-01-30T14:43:48.517Z,1.66
2023-01-30T14:46:57.197Z,1.58
2023-01-30T14:49:58.803Z,1.43
2023-01-30T14:53:29.327Z,1.50
2023-01-30T14:56:04.171Z,1.50
2023-01-30T14:59:40.447Z,1.44
2023-01-30T15:02:43.753Z,1.57
2023-01-30T15:05:45.887Z,1.51
2023-01-30T15:08:20.554Z,1.49
2023-01-30T15:11:06.486Z,1.43
2023-01-30T15:23:47.009Z,1.03
2023-01-30T15:26:48.395Z,1.01
2023-01-30T15:29:51.380Z,0.85
2023-01-30T15:32:30.179Z,0.89
2023-01-30T15:35:32.883Z,0.75
2023-01-30T15:38:06.398Z,0.82
2023-01-30T15:41:10.955Z,0.96
2023-01-30T15:44:16.900Z,0.98
2023-01-30T15:46:52.386Z,0.87
2023-01-30T15:49:42.790Z,0.75
2023-01-30T15:52:47.346Z,0.70
2023-01-30T15:55:38.183Z,0.67
2023-01-30T15:58:12.165Z,0.70
2023-01-30T16:00:47.334Z,0.82
2023-01-30T16:03:21.787Z,0.82
2023-01-30T16:05:51.217Z,0.81
2023-01-30T16:08:23.903Z,0.52
2023-01-30T16:10:55.666Z,0.57
2023-01-30T16:13:30.190Z,0.64
2023-01-30T16:16:05.895Z,0.63
2023-01-30T16:18:42.447Z,0.81
2023-01-30T16:21:17.616Z,0.82
2023-01-30T16:23:56.369Z,0.61
2023-01-30T16:26:27.073Z,0.56
2023-01-30T16:29:03.966Z,0.46
2023-01-30T16:31:49.721Z,0.52
2023-01-30T16:34:30.482Z,0.73
2023-01-30T16:37:04.424Z,0.73
2023-01-30T16:39:36.444Z,0.70
2023-01-30T16:42:31.259Z,0.65
2023-01-30T16:45:55.160Z,0.65
2023-01-30T16:48:34.639Z,0.47
2023-01-30T16:51:35.282Z,0.43
2023-01-30T16:54:19.351Z,0.42
2023-01-30T16:56:56.166Z,0.34
2023-01-30T16:59:41.452Z,0.40
2023-01-30T17:02:43.282Z,0.46
2023-01-30T17:05:49.454Z,0.37
2023-01-30T17:09:16.470Z,0.50
2023-01-30T17:11:49.253Z,0.52
2023-01-30T17:14:23.271Z,0.54
2023-01-30T17:17:06.748Z,0.49
2023-01-30T17:20:08.600Z,0.50
2023-01-30T17:22:42.074Z,0.75
2023-01-30T17:25:45.436Z,0.80
2023-01-30T17:28:24.879Z,0.82
2023-01-30T17:30:55.486Z,0.93
2023-01-30T17:33:32.078Z,0.92
2023-01-30T17:36:23.990Z,0.87
2023-01-30T17:39:00.810Z,0.96
2023-01-30T17:41:38.341Z,0.91
2023-01-30T17:44:34.374Z,0.92
2023-01-30T17:47:03.995Z,1.06
2023-01-30T17:49:42.499Z,1.16
2023-01-30T17:52:16.772Z,1.28
2023-01-30T17:54:53.280Z,1.35
2023-01-30T17:57:25.252Z,1.26
2023-01-30T18:00:06.385Z,1.29
2023-01-30T18:03:09.812Z,1.32
2023-01-30T18:05:45.245Z,1.36
2023-01-30T18:08:18.923Z,1.36
2023-01-30T18:10:48.771Z,1.40
2023-01-30T18:13:49.099Z,1.47
2023-01-30T18:16:38.271Z,1.51
2023-01-30T18:19:15.147Z,1.60
2023-01-30T18:21:51.130Z,1.73
2023-01-30T18:24:22.477Z,1.66
2023-01-30T18:26:53.853Z,1.64
2023-01-30T18:29:26.593Z,1.63
2023-01-30T18:32:05.505Z,1.66
2023-01-30T18:35:08.127Z,1.67
2023-01-30T18:37:45.413Z,1.74
2023-01-30T18:40:18.948Z,1.82
2023-01-30T18:42:50.895Z,1.85
2023-01-30T18:45:23.424Z,1.84
2023-01-30T18:48:31.285Z,2.01
2023-01-30T18:51:10.349Z,2.09
2023-01-30T18:54:10.845Z,2.29
2023-01-30T18:56:50.751Z,2.43
2023-01-30T18:59:51.268Z,2.57
2023-01-30T19:02:42.344Z,2.54
2023-01-30T19:05:16.112Z,2.57
2023-01-30T19:07:47.145Z,2.53
2023-01-30T19:10:23.189Z,2.54
2023-01-30T19:13:13.326Z,2.47
2023-01-30T19:15:50.154Z,2.57
2023-01-30T19:18:20.456Z,2.52
2023-01-30T19:20:58.231Z,2.56
2023-01-30T19:23:34.561Z,2.64
2023-01-30T19:26:07.211Z,2.61
2023-01-30T19:28:39.108Z,2.54
2023-01-30T19:31:16.160Z,2.56
2023-01-30T19:33:57.429Z,2.56
2023-01-30T19:37:26.689Z,2.54
2023-01-30T19:40:57.819Z,2.58
2023-01-30T19:43:31.098Z,2.60
2023-01-30T19:46:03.264Z,2.57
2023-01-30T19:49:51.180Z,2.64
2023-01-30T19:57:04.435Z,2.73
2023-01-30T20:00:00.976Z,2.81
2023-01-30T20:04:02.670Z,2.85
2023-01-30T20:11:25.626Z,3.04
2023-01-30T20:13:57.014Z,2.98
2023-01-30T20:16:32.014Z,3.11
2023-01-30T20:19:05.386Z,3.09
2023-01-30T20:21:38.359Z,3.12
2023-01-30T20:24:14.277Z,3.09
2023-01-30T20:26:51.589Z,3.08
2023-01-30T20:29:54.079Z,3.18
2023-01-30T20:32:30.159Z,3.11
2023-01-30T20:36:11.197Z,3.00
2023-01-30T20:38:47.368Z,2.88
2023-01-30T20:46:06.991Z,2.95
2023-01-30T20:49:05.773Z,3.07
2023-01-30T20:51:41.202Z,3.04
2023-01-30T20:54:29.009Z,3.15
2023-01-30T20:57:03.742Z,3.15
2023-01-30T20:59:34.297Z,3.09
2023-01-30T21:02:08.023Z,3.12
2023-01-30T21:04:40.386Z,3.11
2023-01-30T21:07:10.418Z,3.11
2023-01-30T21:09:43.781Z,3.08
2023-01-30T21:12:16.566Z,3.16
2023-01-30T21:14:47.535Z,3.16
2023-01-30T21:17:53.793Z,3.04
2023-01-30T21:20:27.910Z,3.01
2023-01-30T21:27:32.864Z,2.95
2023-01-30T21:31:28.617Z,3.07
2023-01-30T21:34:27.527Z,3.07
2023-01-30T21:37:17.679Z,3.05
2023-01-30T21:40:39.044Z,3.05
2023-01-30T21:43:33.640Z,3.09
2023-01-30T21:46:03.319Z,3.18
2023-01-30T21:49:09.961Z,3.18
2023-01-30T21:51:42.419Z,3.32
2023-01-30T21:54:19.857Z,3.32
2023-01-30T21:56:49.630Z,3.29
2023-01-30T21:59:18.639Z,3.32
2023-01-30T22:01:46.942Z,3.29
2023-01-30T22:04:19.612Z,3.42
2023-01-30T22:07:20.607Z,3.38
2023-01-30T22:09:53.317Z,3.49
2023-01-30T22:12:23.647Z,3.38
2023-01-30T22:14:53.855Z,3.40
2023-01-30T22:17:51.081Z,3.47
2023-01-30T22:20:34.629Z,3.49
2023-01-30T22:23:10.869Z,3.49
2023-01-30T22:25:44.211Z,3.55
2023-01-30T22:28:14.446Z,3.56
2023-01-30T22:30:43.729Z,3.49
2023-01-30T22:33:11.999Z,3.62
2023-01-30T22:35:49.472Z,3.60
2023-01-30T22:38:29.783Z,3.60
2023-01-30T22:41:06.715Z,3.64
2023-01-30T22:43:39.428Z,3.57
2023-01-30T22:46:12.024Z,3.66
2023-01-30T22:48:59.573Z,3.55
2023-01-30T22:51:56.279Z,3.59
2023-01-30T22:54:27.667Z,3.57
2023-01-30T22:57:27.206Z,3.63
2023-01-30T22:59:56.477Z,3.64
2023-01-30T23:02:59.541Z,3.56
2023-01-30T23:05:35.868Z,3.60
2023-01-30T23:08:05.271Z,3.66
2023-01-30T23:10:40.357Z,3.67
2023-01-30T23:13:16.817Z,3.67
2023-01-30T23:15:46.825Z,3.57
2023-01-30T23:18:35.844Z,3.44
2023-01-30T23:21:04.167Z,3.25
2023-01-30T23:24:06.577Z,3.16
2023-01-30T23:26:42.659Z,2.98
2023-01-30T23:29:17.319Z,2.91
2023-01-30T23:31:48.006Z,2.95
2023-01-30T23:35:21.072Z,2.83
2023-01-30T23:39:03.961Z,2.92
2023-01-30T23:42:31.004Z,2.90
2023-01-30T23:45:30.148Z,2.95
2023-01-30T23:48:32.507Z,3.07
2023-01-30T23:55:33.412Z,3.23
2023-01-30T23:58:30.106Z,3.15
